Time;durP1;ratioP1;P1;durP2;ratioP2;P2;SDS_P1;SDS_P2;PMS_P1;PMS_P2;Temp;Humidity;BMP_temperature;BMP_pressure;BME280_temperature;BME280_humidity;BME280_pressure;Samples;Min_cycle;Max_cycle;Signal;HPM_P1;HPM_P2
2021/04/02 00:00:57;;;;;;;23.25;11.85;;;;;;;6.24;85.12;100591.42;1779909;80;22223;-48
2021/04/02 00:03:29;;;;;;;16.75;11.22;;;;;;;6.26;85.09;100586.94;1779834;80;21129;-49
2021/04/02 00:05:57;;;;;;;17.60;10.90;;;;;;;6.27;85.08;100584.70;1772066;80;21138;-48
2021/04/02 00:08:25;;;;;;;21.40;11.18;;;;;;;6.27;85.25;100583.37;1792248;79;21165;-48
2021/04/02 00:11:06;;;;;;;17.80;10.98;;;;;;;6.28;85.50;100582.92;1772609;80;21206;-49
2021/04/02 00:13:36;;;;;;;17.73;10.82;;;;;;;6.29;85.66;100574.89;1772617;81;21244;-49
2021/04/02 00:16:05;;;;;;;19.62;10.48;;;;;;;6.35;85.71;100575.70;1772637;80;21078;-49
2021/04/02 00:18:32;;;;;;;19.20;11.20;;;;;;;6.36;85.70;100571.66;1792248;80;21058;-48
2021/04/02 00:21:06;;;;;;;16.23;11.40;;;;;;;6.41;85.71;100569.80;1792126;80;21079;-48
2021/04/02 00:23:36;;;;;;;17.45;11.45;;;;;;;6.43;85.87;100567.09;1792406;80;21232;-48
2021/04/02 00:26:16;;;;;;;19.52;11.20;;;;;;;6.44;86.01;100572.40;1792291;80;21197;-49
2021/04/02 00:28:52;;;;;;;15.45;10.25;;;;;;;6.48;86.21;100578.52;1792194;80;21201;-48
2021/04/02 00:31:20;;;;;;;17.98;10.38;;;;;;;6.49;86.16;100573.61;1792337;80;21150;-48
2021/04/02 00:33:47;;;;;;;18.57;11.25;;;;;;;6.52;86.27;100571.34;1792211;80;21158;-48
2021/04/02 00:36:15;;;;;;;18.00;11.25;;;;;;;6.51;86.15;100564.27;1792223;80;21102;-49
2021/04/02 00:38:43;;;;;;;21.25;11.50;;;;;;;6.46;86.17;100569.69;1792342;80;21334;-48
2021/04/02 00:41:15;;;;;;;18.05;10.65;;;;;;;6.38;86.08;100564.52;1792215;80;21115;-49
2021/04/02 00:43:47;;;;;;;18.65;10.93;;;;;;;6.34;86.06;100560.63;1792269;79;21165;-49
2021/04/02 00:46:15;;;;;;;18.05;11.33;;;;;;;6.27;86.27;100546.09;1798068;79;21163;-49
2021/04/02 00:48:44;;;;;;;17.30;10.93;;;;;;;6.24;86.52;100551.48;1798185;79;21040;-49
2021/04/02 00:51:26;;;;;;;21.33;11.68;;;;;;;6.22;86.69;100536.47;1766945;81;21137;-49
2021/04/02 00:53:55;;;;;;;19.90;11.63;;;;;;;6.20;86.73;100539.14;1755794;80;21155;-48
2021/04/02 00:56:23;;;;;;;17.23;10.25;;;;;;;6.24;86.50;100535.98;1780042;80;21506;-48
2021/04/02 00:58:51;;;;;;;15.30;9.68;;;;;;;6.28;85.69;100534.53;1798401;79;21058;-48
2021/04/02 01:01:19;;;;;;;18.15;9.98;;;;;;;6.35;84.93;100529.10;1798423;79;21052;-47
2021/04/02 01:03:48;;;;;;;17.80;10.58;;;;;;;6.44;84.15;100528.89;1798412;79;21354;-48
2021/04/02 01:06:24;;;;;;;16.62;9.85;;;;;;;6.53;83.68;100531.38;1797504;79;21491;-48
2021/04/02 01:08:54;;;;;;;18.02;11.00;;;;;;;6.56;83.49;100531.30;1796702;79;21062;-49
2021/04/02 01:11:24;;;;;;;19.42;9.88;;;;;;;6.56;83.68;100530.41;1796671;79;21059;-48
2021/04/02 01:13:56;;;;;;;18.07;10.60;;;;;;;6.56;84.16;100530.41;1780982;79;21071;-49
2021/04/02 01:16:29;;;;;;;21.48;10.90;;;;;;;6.52;84.39;100528.30;1796719;79;21354;-49
2021/04/02 01:19:16;;;;;;;23.02;11.40;;;;;;;6.50;84.37;100523.42;1796637;79;21161;-49
2021/04/02 01:21:49;;;;;;;14.55;9.30;;;;;;;6.48;84.26;100524.39;1796574;79;21142;-49
2021/04/02 01:24:26;;;;;;;16.20;9.60;;;;;;;6.48;83.73;100519.92;1796776;79;21122;-49
2021/04/02 01:27:30;;;;;;;16.02;9.83;;;;;;;6.49;83.15;100521.67;1796866;79;21114;-49
2021/04/02 01:30:07;;;;;;;14.43;9.43;;;;;;;6.52;82.59;100520.30;1796795;79;21261;-49
2021/04/02 01:32:39;;;;;;;16.32;9.43;;;;;;;6.56;82.13;100508.66;1796694;79;21618;-48
2021/04/02 01:35:31;;;;;;;14.93;9.53;;;;;;;6.59;81.79;100501.94;1796767;79;21115;-49
2021/04/02 01:38:32;;;;;;;15.13;8.63;;;;;;;6.62;81.26;100497.44;1796697;79;21077;-49
2021/04/02 01:41:06;;;;;;;13.20;8.23;;;;;;;6.67;80.76;100489.77;1796686;79;21103;-49
2021/04/02 01:43:42;;;;;;;15.58;8.00;;;;;;;6.72;79.79;100480.32;1796754;79;21558;-49
2021/04/02 01:46:10;;;;;;;15.25;8.50;;;;;;;6.81;78.27;100479.23;1798371;79;21060;-49
2021/04/02 01:48:39;;;;;;;13.90;8.15;;;;;;;6.93;76.34;100478.06;1798392;79;21129;-49
2021/04/02 01:51:08;;;;;;;12.28;7.47;;;;;;;7.05;75.59;100474.22;1798400;79;21167;-49
2021/04/02 01:53:41;;;;;;;12.70;7.47;;;;;;;7.14;73.73;100473.53;1798342;79;21187;-49
2021/04/02 01:56:09;;;;;;;11.53;7.15;;;;;;;7.26;73.00;100467.48;1798443;79;22110;-48
2021/04/02 01:58:38;;;;;;;11.30;7.42;;;;;;;7.35;72.39;100460.56;1798266;79;21111;-49
2021/04/02 02:01:08;;;;;;;15.20;8.30;;;;;;;7.41;71.65;100467.53;1783046;79;21111;-48
2021/04/02 02:03:37;;;;;;;13.00;8.13;;;;;;;7.47;71.56;100467.84;1798266;79;21162;-48
2021/04/02 02:06:08;;;;;;;11.12;7.78;;;;;;;7.51;71.44;100453.50;1797415;79;21190;-48
2021/04/02 02:08:55;;;;;;;13.93;8.40;;;;;;;7.53;71.48;100448.99;1796662;79;21766;-48
2021/04/02 02:11:27;;;;;;;13.72;7.42;;;;;;;7.54;71.61;100447.63;1796649;79;21146;-48
2021/04/02 02:14:11;;;;;;;12.80;8.20;;;;;;;7.57;71.67;100441.31;1796631;79;21129;-49
2021/04/02 02:16:42;;;;;;;16.60;8.20;;;;;;;7.57;71.96;100430.64;1796488;79;21181;-49
2021/04/02 02:19:13;;;;;;;14.63;8.48;;;;;;;7.55;72.31;100429.81;1796691;79;21145;-48
2021/04/02 02:21:43;;;;;;;14.58;8.25;;;;;;;7.53;72.88;100430.31;1795836;79;21051;-48
2021/04/02 02:24:12;;;;;;;13.75;8.85;;;;;;;7.47;73.51;100432.69;1793555;80;21067;-49
2021/04/02 02:26:41;;;;;;;18.87;8.93;;;;;;;7.41;74.06;100424.41;1793583;80;21079;-49
2021/04/02 02:29:10;;;;;;;13.60;7.80;;;;;;;7.38;74.71;100431.14;1793627;80;21467;-48
2021/04/02 02:31:39;;;;;;;15.18;8.33;;;;;;;7.36;75.21;100415.64;1793566;80;21090;-49
2021/04/02 02:34:07;;;;;;;13.10;8.80;;;;;;;7.35;75.64;100411.22;1793564;80;21191;-49
2021/04/02 02:36:39;;;;;;;14.87;8.68;;;;;;;7.31;76.17;100408.23;1793082;79;21158;-49
2021/04/02 02:39:11;;;;;;;16.23;8.55;;;;;;;7.28;76.65;100420.31;1793524;79;21106;-49
2021/04/02 02:41:42;;;;;;;12.73;7.70;;;;;;;7.22;77.11;100409.34;1793805;80;21054;-49
2021/04/02 02:44:12;;;;;;;16.70;9.05;;;;;;;7.20;77.46;100406.33;1775750;80;21111;-48
2021/04/02 02:46:40;;;;;;;19.10;10.55;;;;;;;7.19;77.57;100412.57;1795178;80;21528;-49
2021/04/02 02:49:15;;;;;;;15.00;9.65;;;;;;;7.19;77.68;100412.57;1795207;80;21084;-49
2021/04/02 02:51:44;;;;;;;17.02;9.23;;;;;;;7.21;77.78;100412.93;1795175;79;21155;-49
2021/04/02 02:54:18;;;;;;;16.45;9.55;;;;;;;7.22;78.08;100404.48;1777330;80;21500;-49
2021/04/02 02:56:48;;;;;;;17.80;10.05;;;;;;;7.24;78.40;100401.32;1795443;80;21559;-48
2021/04/02 02:59:20;;;;;;;17.02;10.18;;;;;;;7.26;78.83;100398.16;1777312;80;22219;-48
2021/04/02 03:01:48;;;;;;;17.10;10.00;;;;;;;7.27;79.00;100399.90;1795253;80;21202;-48
2021/04/02 03:04:18;;;;;;;17.27;9.55;;;;;;;7.28;79.18;100392.31;1777496;80;21147;-49
2021/04/02 03:06:46;;;;;;;20.55;9.83;;;;;;;7.27;79.50;100394.09;1793935;80;21153;-49
2021/04/02 03:09:16;;;;;;;16.15;9.83;;;;;;;7.27;79.66;100389.23;1793533;80;21134;-49
2021/04/02 03:11:46;;;;;;;17.05;10.00;;;;;;;7.26;79.95;100395.48;1776183;80;21126;-49
2021/04/02 03:14:16;;;;;;;17.42;9.98;;;;;;;7.24;80.24;100392.84;1793585;80;21574;-49
2021/04/02 03:16:50;;;;;;;16.23;10.80;;;;;;;7.23;80.21;100396.91;1793518;80;21681;-49
2021/04/02 03:19:23;;;;;;;17.67;9.93;;;;;;;7.22;80.19;100391.16;1776906;80;22302;-49
2021/04/02 03:21:54;;;;;;;17.73;10.38;;;;;;;7.18;80.45;100394.34;1793197;79;21198;-49
2021/04/02 03:24:25;;;;;;;18.55;10.15;;;;;;;7.17;80.52;100396.59;1770583;79;21388;-49
2021/04/02 03:26:55;;;;;;;19.82;9.85;;;;;;;7.16;80.77;100398.85;1796553;79;21161;-49
2021/04/02 03:29:24;;;;;;;15.68;10.05;;;;;;;7.17;80.99;100399.27;1765294;81;21506;-49
2021/04/02 03:31:58;;;;;;;18.55;10.30;;;;;;;7.16;81.59;100401.05;1796802;79;21484;-49
2021/04/02 03:34:25;;;;;;;15.10;9.85;;;;;;;7.15;82.18;100400.63;1794390;80;21554;-49
2021/04/02 03:36:55;;;;;;;16.20;10.32;;;;;;;7.10;82.64;100403.88;1796629;79;21536;-48
2021/04/02 03:39:27;;;;;;;17.73;10.00;;;;;;;7.04;83.14;100402.72;1763449;81;21206;-49
2021/04/02 03:41:58;;;;;;;18.55;11.10;;;;;;;7.01;83.64;100395.66;1796754;79;21579;-49
2021/04/02 03:44:31;;;;;;;21.48;11.20;;;;;;;6.99;83.88;100388.64;1794931;79;21101;-49
2021/04/02 03:47:01;;;;;;;18.48;10.55;;;;;;;6.98;84.60;100393.55;1798467;79;21521;-48
2021/04/02 03:49:32;;;;;;;17.27;10.80;;;;;;;6.98;85.24;100385.56;1783329;79;22267;-49
2021/04/02 03:52:07;;;;;;;16.42;10.72;;;;;;;6.99;85.42;100381.98;1798399;79;21099;-48
2021/04/02 03:54:36;;;;;;;19.73;11.25;;;;;;;7.05;85.51;100385.80;1791625;79;21163;-49
2021/04/02 03:57:06;;;;;;;19.65;11.45;;;;;;;7.13;85.43;100375.80;1798577;79;21076;-49
2021/04/02 03:59:36;;;;;;;17.35;10.48;;;;;;;7.22;85.33;100372.49;1798580;79;21155;-49
2021/04/02 04:02:05;;;;;;;16.50;10.63;;;;;;;7.26;85.27;100370.15;1757473;79;21352;-48
2021/04/02 04:04:33;;;;;;;17.82;10.40;;;;;;;7.27;85.20;100363.42;1782963;79;21092;-49
2021/04/02 04:07:04;;;;;;;20.90;10.50;;;;;;;7.30;85.11;100359.81;1782554;79;21095;-49
2021/04/02 04:09:35;;;;;;;18.23;11.08;;;;;;;7.35;84.98;100352.55;1798482;79;21556;-48
2021/04/02 04:12:06;;;;;;;20.45;12.23;;;;;;;7.42;84.74;100351.48;1781914;79;21154;-49
2021/04/02 04:14:50;;;;;;;22.90;11.67;;;;;;;7.59;84.34;100346.09;1872984;76;25527;-49
2021/04/02 04:17:20;;;;;;;21.27;12.35;;;;;;;7.67;84.01;100344.54;1839135;78;21052;-49
2021/04/02 04:19:50;;;;;;;21.87;11.75;;;;;;;7.81;83.86;100342.80;1840967;78;21182;-49
2021/04/02 04:22:20;;;;;;;20.25;11.80;;;;;;;7.92;83.47;100343.36;1840655;78;21155;-49
2021/04/02 04:24:48;;;;;;;18.92;11.20;;;;;;;8.01;83.04;100339.06;1783624;78;21112;-49
2021/04/02 04:27:16;;;;;;;17.75;12.00;;;;;;;8.09;82.66;100343.31;1840874;78;21107;-49
2021/04/02 04:29:46;;;;;;;21.27;12.10;;;;;;;8.16;82.06;100336.84;1840880;78;21127;-48
2021/04/02 04:32:16;;;;;;;19.57;11.78;;;;;;;8.25;81.43;100336.53;1840874;78;21678;-50
2021/04/02 04:34:45;;;;;;;21.10;12.43;;;;;;;8.36;80.74;100333.52;1840782;77;21595;-48
2021/04/02 04:37:13;;;;;;;24.92;11.73;;;;;;;8.48;79.73;100325.56;1840832;78;21144;-49
2021/04/02 04:39:43;;;;;;;24.55;13.10;;;;;;;8.57;78.98;100319.96;1840798;78;21056;-49
2021/04/02 04:42:15;;;;;;;21.55;12.58;;;;;;;8.64;78.45;100322.42;1840866;77;21079;-49
2021/04/02 04:44:44;;;;;;;23.50;12.20;;;;;;;8.70;77.93;100308.84;1836367;78;21407;-49
2021/04/02 04:47:12;;;;;;;19.77;12.50;;;;;;;8.73;77.66;100312.73;1827855;78;21145;-49
2021/04/02 04:49:40;;;;;;;21.82;12.65;;;;;;;8.75;77.52;100306.91;1828013;78;21081;-49
2021/04/02 04:52:09;;;;;;;22.80;13.20;;;;;;;8.79;77.29;100309.88;1827961;77;21036;-49
2021/04/02 04:54:36;;;;;;;26.73;13.25;;;;;;;8.83;76.96;100303.94;1827952;78;21070;-50
2021/04/02 04:57:06;;;;;;;19.65;12.70;;;;;;;8.87;76.50;100305.13;1827992;78;21378;-49
2021/04/02 04:59:33;;;;;;;19.20;12.05;;;;;;;8.92;76.11;100303.63;1827883;77;21102;-50
2021/04/02 05:02:01;;;;;;;21.33;12.85;;;;;;;8.98;75.79;100306.56;1809625;78;21038;-49
2021/04/02 05:04:28;;;;;;;21.30;12.60;;;;;;;9.03;75.63;100312.61;1827936;77;21031;-51
2021/04/02 05:07:00;;;;;;;26.33;12.88;;;;;;;9.09;75.32;100307.03;1838239;78;21115;-51
2021/04/02 05:09:28;;;;;;;18.90;11.63;;;;;;;9.14;74.86;100313.08;1840818;78;21354;-50
2021/04/02 05:11:58;;;;;;;26.52;11.63;;;;;;;9.18;74.68;100316.53;1840529;78;21095;-50
2021/04/02 05:14:26;;;;;;;21.80;10.65;;;;;;;9.22;74.56;100313.29;1840777;77;21112;-49
2021/04/02 05:16:54;;;;;;;22.55;10.93;;;;;;;9.25;74.32;100310.50;1840898;78;21211;-48
2021/04/02 05:19:22;;;;;;;17.35;11.00;;;;;;;9.29;74.04;100305.44;1840937;78;21089;-50
2021/04/02 05:21:49;;;;;;;20.72;11.45;;;;;;;9.33;73.85;100303.53;1840867;78;21683;-51
2021/04/02 05:24:17;;;;;;;18.62;11.55;;;;;;;9.35;73.53;100317.24;1840608;78;21128;-50
2021/04/02 05:26:44;;;;;;;20.08;10.93;;;;;;;9.36;73.38;100312.78;1840194;78;21135;-49
2021/04/02 05:29:12;;;;;;;27.40;10.45;;;;;;;9.35;73.34;100310.55;1840189;78;21132;-49
2021/04/02 05:31:40;;;;;;;21.12;10.23;;;;;;;9.37;73.40;100303.34;1840273;78;21084;-49
2021/04/02 05:34:09;;;;;;;23.35;11.05;;;;;;;9.40;73.45;100304.59;1839324;78;21277;-49
2021/04/02 05:36:37;;;;;;;19.48;11.05;;;;;;;9.40;73.55;100301.03;1840170;78;21076;-50
2021/04/02 05:39:06;;;;;;;25.43;11.55;;;;;;;9.42;73.59;100301.84;1840242;78;21135;-49
2021/04/02 05:41:45;;;;;;;20.08;11.90;;;;;;;9.43;73.82;100298.23;1835925;78;21555;-49
2021/04/02 05:44:15;;;;;;;20.12;11.00;;;;;;;9.41;74.12;100298.31;1836937;78;21137;-50
2021/04/02 05:46:43;;;;;;;35.98;12.73;;;;;;;9.38;74.46;100290.38;1827325;78;21303;-50
2021/04/02 05:49:11;;;;;;;25.57;11.85;;;;;;;9.38;74.75;100293.05;1826986;78;21102;-49
2021/04/02 05:51:39;;;;;;;22.50;11.30;;;;;;;9.39;74.94;100284.09;1826675;78;21223;-50
2021/04/02 05:54:10;;;;;;;21.35;12.90;;;;;;;9.40;75.07;100287.20;1827161;78;21043;-50
2021/04/02 05:56:38;;;;;;;25.45;12.20;;;;;;;9.41;75.10;100284.94;1809119;78;21043;-51
2021/04/02 05:59:05;;;;;;;19.62;11.48;;;;;;;9.41;75.18;100287.61;1827246;78;21408;-49
2021/04/02 06:01:33;;;;;;;25.82;11.78;;;;;;;9.45;75.24;100289.68;1827196;78;21176;-50
2021/04/02 06:04:01;;;;;;;41.75;12.70;;;;;;;9.47;75.27;100277.11;1827292;77;21083;-50
2021/04/02 06:06:29;;;;;;;29.63;13.18;;;;;;;9.51;75.24;100275.20;1835208;78;21045;-50
2021/04/02 06:08:56;;;;;;;26.45;12.00;;;;;;;9.58;75.04;100270.02;1840170;78;21049;-50
2021/04/02 06:11:24;;;;;;;19.37;11.97;;;;;;;9.69;74.56;100270.94;1840197;78;21667;-51
2021/04/02 06:13:53;;;;;;;21.65;12.70;;;;;;;9.81;73.87;100264.22;1842047;77;21123;-50
2021/04/02 06:16:21;;;;;;;22.50;11.65;;;;;;;9.89;73.14;100270.16;1846128;77;21044;-50
2021/04/02 06:18:48;;;;;;;27.82;12.23;;;;;;;9.95;72.63;100271.73;1846110;77;21056;-49
2021/04/02 06:21:16;;;;;;;25.08;12.05;;;;;;;10.02;72.13;100262.02;1846152;77;21453;-50
2021/04/02 06:23:44;;;;;;;23.57;11.43;;;;;;;10.14;71.72;100263.33;1818302;77;21457;-50
2021/04/02 06:26:13;;;;;;;19.87;11.90;;;;;;;10.26;71.10;100259.75;1846194;77;21246;-50
2021/04/02 06:28:42;;;;;;;27.87;12.40;;;;;;;10.38;70.68;100262.39;1846117;77;21182;-49
2021/04/02 06:31:14;;;;;;;23.70;12.60;;;;;;;10.54;70.33;100270.23;1846092;77;21227;-50
2021/04/02 06:33:53;;;;;;;22.22;11.75;;;;;;;10.72;69.85;100262.30;1846118;77;21159;-49
2021/04/02 06:36:27;;;;;;;27.22;12.63;;;;;;;10.88;69.33;100260.70;1846152;77;21679;-49
2021/04/02 06:39:03;;;;;;;20.90;12.35;;;;;;;11.04;68.79;100256.00;1846191;77;21128;-50
2021/04/02 06:41:32;;;;;;;31.67;13.33;;;;;;;11.18;68.06;100264.77;1846332;77;20965;-50
2021/04/02 06:44:03;;;;;;;21.37;11.33;;;;;;;11.27;67.30;100256.31;1845015;77;21059;-51
2021/04/02 06:46:36;;;;;;;20.90;11.68;;;;;;;11.30;66.98;100251.26;1830277;77;21142;-50
2021/04/02 06:49:19;;;;;;;30.15;12.60;;;;;;;11.32;66.52;100258.31;1830177;78;21313;-50
2021/04/02 06:51:49;;;;;;;20.75;11.85;;;;;;;11.37;66.19;100255.88;1830018;77;21133;-50
2021/04/02 06:54:24;;;;;;;23.10;11.43;;;;;;;11.39;65.75;100249.51;1830003;77;21074;-49
2021/04/02 06:57:08;;;;;;;21.20;11.05;;;;;;;11.40;65.53;100232.45;1830291;77;21527;-49
2021/04/02 06:59:35;;;;;;;21.15;11.90;;;;;;;11.44;65.29;100247.47;1830174;78;20983;-50
2021/04/02 07:02:05;;;;;;;19.95;11.93;;;;;;;11.50;65.22;100242.75;1830107;78;21232;-49
2021/04/02 07:04:33;;;;;;;19.50;11.88;;;;;;;11.51;65.09;100241.81;1830096;78;21101;-49
2021/04/02 07:07:03;;;;;;;21.42;11.15;;;;;;;11.52;65.00;100248.91;1843416;77;21187;-50
2021/04/02 07:09:37;;;;;;;18.90;11.38;;;;;;;11.53;64.94;100246.17;1846016;77;21124;-50
2021/04/02 07:12:06;;;;;;;23.92;11.57;;;;;;;11.55;64.77;100250.11;1818592;77;21148;-50
2021/04/02 07:14:34;;;;;;;25.62;11.70;;;;;;;11.64;64.69;100242.98;1843099;77;22262;-51
2021/04/02 07:17:03;;;;;;;18.82;11.20;;;;;;;11.75;64.40;100217.81;1840132;78;21120;-50
2021/04/02 07:19:30;;;;;;;23.70;10.85;;;;;;;11.90;63.33;100233.64;1840169;78;21083;-50
2021/04/02 07:21:58;;;;;;;18.00;10.08;;;;;;;12.04;62.70;100232.99;1840137;78;21048;-49
2021/04/02 07:24:28;;;;;;;18.60;10.05;;;;;;;12.14;62.03;100227.17;1840169;78;21124;-50
2021/04/02 07:26:58;;;;;;;17.77;9.45;;;;;;;12.21;61.30;100235.32;1840123;77;21182;-50
2021/04/02 07:29:26;;;;;;;19.87;9.63;;;;;;;12.27;60.85;100237.72;1840094;78;21115;-51
2021/04/02 07:31:53;;;;;;;22.30;9.18;;;;;;;12.31;60.46;100231.23;1810255;78;21084;-49
2021/04/02 07:34:21;;;;;;;21.10;9.65;;;;;;;12.31;60.18;100228.55;1840135;78;21048;-49
2021/04/02 07:36:50;;;;;;;15.48;8.80;;;;;;;12.31;60.08;100219.60;1810468;78;21077;-50
2021/04/02 07:39:24;;;;;;;20.68;9.23;;;;;;;12.29;59.48;100199.54;1810292;78;21689;-51
2021/04/02 07:41:54;;;;;;;20.12;9.05;;;;;;;12.29;59.04;100217.02;1839988;78;21116;-49
2021/04/02 07:44:22;;;;;;;19.30;8.25;;;;;;;12.31;59.14;100227.20;1810959;78;21147;-49
2021/04/02 07:47:09;;;;;;;19.62;8.70;;;;;;;12.30;58.68;100206.66;1821169;76;21096;-50
2021/04/02 07:49:54;;;;;;;20.60;8.78;;;;;;;12.31;58.43;100216.91;1807231;79;21445;-50
2021/04/02 07:52:39;;;;;;;22.20;9.13;;;;;;;12.28;58.82;100212.58;1807235;79;21471;-51
2021/04/02 07:55:18;;;;;;;19.07;9.10;;;;;;;12.30;59.30;100206.66;1807076;79;21444;-50
2021/04/02 07:58:01;;;;;;;18.90;9.83;;;;;;;12.35;59.20;100212.27;1811943;78;21484;-50
2021/04/02 08:00:32;;;;;;;21.60;9.43;;;;;;;12.42;59.33;100210.98;1809548;78;21076;-49
2021/04/02 08:03:16;;;;;;;18.45;8.58;;;;;;;12.55;59.36;100221.52;1786265;78;21163;-50
2021/04/02 08:06:11;;;;;;;14.33;7.90;;;;;;;12.69;58.96;100208.69;1834082;78;21349;-50
2021/04/02 08:08:45;;;;;;;14.60;8.03;;;;;;;12.85;57.80;100225.38;1821587;78;21204;-51
2021/04/02 08:11:27;;;;;;;14.55;8.20;;;;;;;13.01;57.80;100222.73;1827061;77;21488;-50
2021/04/02 08:14:09;;;;;;;16.57;8.08;;;;;;;13.17;57.44;100231.72;1817568;76;21183;-50
2021/04/02 08:16:54;;;;;;;20.72;8.68;;;;;;;13.32;57.30;100226.44;1830415;78;21595;-50
2021/04/02 08:19:34;;;;;;;14.83;7.35;;;;;;;13.45;56.68;100226.66;1798492;79;21494;-49
2021/04/02 08:22:05;;;;;;;14.07;7.87;;;;;;;13.59;55.61;100221.84;1798385;79;21175;-50
2021/04/02 08:24:39;;;;;;;15.23;7.83;;;;;;;13.70;54.77;100206.42;1798890;79;21138;-49
2021/04/02 08:27:07;;;;;;;16.90;7.47;;;;;;;13.84;54.21;100201.62;1799097;79;21040;-49
2021/04/02 08:29:36;;;;;;;16.30;7.28;;;;;;;13.95;53.01;100195.61;1799068;79;21579;-49
2021/04/02 08:32:06;;;;;;;10.90;6.47;;;;;;;14.03;52.65;100198.22;1799096;79;21195;-50
2021/04/02 08:34:35;;;;;;;18.48;6.83;;;;;;;14.09;52.46;100199.69;1798959;79;21147;-50
2021/04/02 08:37:05;;;;;;;14.38;7.40;;;;;;;14.12;52.47;100194.61;1799082;79;21135;-50
2021/04/02 08:39:35;;;;;;;18.12;7.28;;;;;;;14.16;52.86;100192.13;1799013;79;21205;-50
2021/04/02 08:42:06;;;;;;;18.67;7.35;;;;;;;14.23;53.28;100182.70;1799076;79;21154;-50
2021/04/02 08:44:43;;;;;;;13.75;7.08;;;;;;;14.27;54.09;100172.14;1808051;78;21187;-50
2021/04/02 08:47:13;;;;;;;19.65;7.28;;;;;;;14.28;54.60;100165.79;1830007;78;21079;-51
2021/04/02 08:49:47;;;;;;;12.98;7.70;;;;;;;14.23;54.70;100160.28;1830281;78;21475;-50
2021/04/02 08:52:26;;;;;;;20.62;7.87;;;;;;;14.05;54.94;100164.45;1830073;78;21082;-50
2021/04/02 08:55:01;;;;;;;19.10;7.15;;;;;;;13.89;55.49;100159.09;1830230;78;21550;-49
2021/04/02 08:57:31;;;;;;;19.52;7.55;;;;;;;13.72;56.11;100154.20;1830181;77;21191;-49
2021/04/02 09:00:00;;;;;;;14.45;7.67;;;;;;;13.51;56.88;100147.36;1830040;78;21070;-50
2021/04/02 09:02:30;;;;;;;14.78;7.15;;;;;;;13.33;57.58;100155.48;1830205;78;21038;-50
2021/04/02 09:05:01;;;;;;;14.43;6.42;;;;;;;13.18;58.20;100158.09;1830298;77;21047;-50
2021/04/02 09:07:41;;;;;;;18.67;7.25;;;;;;;13.06;58.84;100138.58;1795560;79;21074;-50
2021/04/02 09:10:15;;;;;;;14.15;7.50;;;;;;;12.99;59.01;100146.61;1789084;79;21177;-50
2021/04/02 09:12:48;;;;;;;17.07;6.63;;;;;;;12.98;59.13;100144.87;1761583;80;21176;-51
2021/04/02 09:15:26;;;;;;;15.78;7.47;;;;;;;13.01;58.15;100143.35;1766168;80;21577;-50
2021/04/02 09:17:53;;;;;;;25.60;7.65;;;;;;;12.99;58.19;100145.26;1764783;80;21116;-52
2021/04/02 09:20:22;;;;;;;19.73;7.08;;;;;;;12.97;58.06;100152.55;1789478;80;21145;-49
2021/04/02 09:22:51;;;;;;;21.20;7.28;;;;;;;12.97;58.35;100137.75;1769559;80;21510;-50
2021/04/02 09:25:19;;;;;;;13.70;6.90;;;;;;;13.04;58.27;100128.37;1719714;80;21185;-50
2021/04/02 09:27:47;;;;;;;12.23;6.50;;;;;;;13.09;57.90;100135.71;1788609;80;21395;-50
2021/04/02 09:30:25;;;;;;;13.88;6.58;;;;;;;13.14;58.17;100144.88;1788583;79;21193;-50
2021/04/02 09:32:53;;;;;;;14.63;6.87;;;;;;;13.18;58.29;100133.88;1788631;80;21198;-50
2021/04/02 09:35:22;;;;;;;23.27;7.03;;;;;;;13.26;58.51;100125.83;1768617;80;21185;-48
2021/04/02 09:37:50;;;;;;;19.10;7.12;;;;;;;13.29;58.10;100129.69;1720369;80;21146;-50
2021/04/02 09:40:17;;;;;;;18.90;7.20;;;;;;;13.31;58.16;100112.52;1789507;80;21079;-49
2021/04/02 09:42:48;;;;;;;15.23;7.45;;;;;;;13.37;58.07;100105.88;1789454;80;21062;-50
2021/04/02 09:45:17;;;;;;;13.08;6.42;;;;;;;13.43;58.05;100117.70;1776545;80;21178;-50
2021/04/02 09:47:47;;;;;;;14.03;7.47;;;;;;;13.47;57.99;100103.57;1776106;80;21183;-50
2021/04/02 09:50:16;;;;;;;15.85;7.05;;;;;;;13.49;58.42;100099.45;1769629;80;22409;-50
2021/04/02 09:52:45;;;;;;;16.50;7.28;;;;;;;13.51;58.88;100090.34;1753632;80;21168;-51
2021/04/02 09:55:13;;;;;;;19.20;7.53;;;;;;;13.51;58.90;100073.30;1777362;80;21188;-51
2021/04/02 09:57:42;;;;;;;21.35;7.97;;;;;;;13.44;58.96;100098.36;1757052;80;21421;-56
2021/04/02 10:00:12;;;;;;;16.30;7.55;;;;;;;13.35;59.57;100085.41;1775257;80;22486;-57
2021/04/02 10:02:40;;;;;;;15.38;7.53;;;;;;;13.23;60.28;100086.98;1778142;80;21067;-58
2021/04/02 10:05:10;;;;;;;25.92;7.90;;;;;;;13.06;60.99;100080.72;1751414;80;21073;-57
2021/04/02 10:07:37;;;;;;;23.35;7.85;;;;;;;12.94;61.46;100069.31;1766238;80;21066;-57
2021/04/02 10:10:09;;;;;;;19.55;7.10;;;;;;;12.80;61.98;100079.01;1768372;80;21148;-58
2021/04/02 10:12:36;;;;;;;14.13;7.80;;;;;;;12.68;62.44;100086.39;1772983;80;21249;-58
2021/04/02 10:15:05;;;;;;;18.42;7.78;;;;;;;12.54;63.00;100082.65;1762246;80;21109;-58
2021/04/02 10:17:33;;;;;;;16.42;7.67;;;;;;;12.43;63.55;100087.26;1766835;80;21204;-57
2021/04/02 10:20:03;;;;;;;18.98;7.72;;;;;;;12.38;63.58;100088.45;1757447;80;21164;-57
2021/04/02 10:22:32;;;;;;;15.90;7.75;;;;;;;12.37;63.61;100078.65;1777844;80;21101;-57
2021/04/02 10:25:00;;;;;;;14.20;7.40;;;;;;;12.42;63.58;100088.67;1769921;80;21346;-58
2021/04/02 10:27:28;;;;;;;19.45;7.42;;;;;;;12.42;63.17;100087.33;1761950;80;21069;-58
2021/04/02 10:29:55;;;;;;;15.88;7.33;;;;;;;12.41;63.33;100085.59;1763736;80;21121;-57
2021/04/02 10:32:25;;;;;;;17.73;7.17;;;;;;;12.41;63.35;100081.56;1772335;80;21133;-58
2021/04/02 10:34:54;;;;;;;15.80;7.58;;;;;;;12.40;63.56;100078.48;1783803;80;21161;-57
2021/04/02 10:37:21;;;;;;;19.30;7.22;;;;;;;12.41;63.76;100073.50;1783896;80;21190;-57
2021/04/02 10:39:49;;;;;;;19.52;8.05;;;;;;;12.44;63.67;100070.64;1783841;80;21057;-59
2021/04/02 10:42:17;;;;;;;19.57;7.35;;;;;;;12.45;63.58;100065.65;1783847;80;21093;-58
2021/04/02 10:44:46;;;;;;;17.87;7.00;;;;;;;12.47;63.42;100052.99;1778584;80;21142;-57
2021/04/02 10:47:14;;;;;;;17.80;7.55;;;;;;;12.49;63.08;100059.19;1777710;80;21514;-57
2021/04/02 10:49:42;;;;;;;16.48;7.15;;;;;;;12.51;63.13;100057.73;1769721;80;21350;-57
2021/04/02 10:52:10;;;;;;;21.50;7.30;;;;;;;12.54;63.28;100049.04;1776053;80;21113;-57
2021/04/02 10:54:39;;;;;;;24.92;7.12;;;;;;;12.59;63.02;100055.48;1758916;80;22317;-57
2021/04/02 10:57:07;;;;;;;16.93;7.05;;;;;;;12.66;62.72;100031.83;1783913;80;21179;-57
2021/04/02 10:59:36;;;;;;;17.15;6.60;;;;;;;12.75;61.55;100036.71;1783662;80;21152;-57
2021/04/02 11:02:05;;;;;;;27.02;7.20;;;;;;;12.84;61.11;100023.23;1783865;80;21686;-58
2021/04/02 11:04:33;;;;;;;18.17;7.92;;;;;;;12.95;60.45;100011.86;1783729;80;21195;-57
2021/04/02 11:07:01;;;;;;;27.37;7.60;;;;;;;13.07;60.44;100019.22;1782461;80;21079;-56
2021/04/02 11:09:29;;;;;;;17.42;7.22;;;;;;;13.15;60.50;100010.25;1759480;81;21098;-57
2021/04/02 11:11:57;;;;;;;24.55;7.90;;;;;;;13.14;60.12;100023.77;1776422;80;21075;-57
2021/04/02 11:14:26;;;;;;;14.98;7.37;;;;;;;13.07;60.57;100023.25;1759505;81;21429;-59
2021/04/02 11:16:54;;;;;;;19.70;7.72;;;;;;;12.99;60.77;100024.18;1776273;80;21126;-57
2021/04/02 11:19:22;;;;;;;24.43;7.45;;;;;;;12.90;60.87;100025.56;1758455;81;21078;-58
2021/04/02 11:21:50;;;;;;;15.18;7.53;;;;;;;12.79;61.45;100032.89;1780744;80;21070;-58
2021/04/02 11:24:18;;;;;;;17.27;7.03;;;;;;;12.72;61.86;100026.13;1780782;79;21041;-58
2021/04/02 11:26:46;;;;;;;23.18;7.85;;;;;;;12.68;62.14;100032.61;1780790;80;21723;-57
2021/04/02 11:29:14;;;;;;;20.02;8.25;;;;;;;12.57;62.61;100017.95;1780719;80;21125;-58
2021/04/02 11:31:42;;;;;;;13.85;6.80;;;;;;;12.48;63.18;100023.81;1780866;79;21185;-58
2021/04/02 11:34:10;;;;;;;17.10;7.83;;;;;;;12.41;63.65;100008.98;1780741;80;21070;-57